sensor_id;sensor_type;location;lat;lon;timestamp;temperature;humidity
9987;DHT22;5033;46.310;11.214;2022-11-20T00:00:53;6.00;99.90
9987;DHT22;5033;46.310;11.214;2022-11-20T00:03:21;6.00;99.90
9987;DHT22;5033;46.310;11.214;2022-11-20T00:05:48;6.00;99.90
9987;DHT22;5033;46.310;11.214;2022-11-20T00:08:16;5.90;99.90
9987;DHT22;5033;46.310;11.214;2022-11-20T00:10:43;5.90;99.90
9987;DHT22;5033;46.310;11.214;2022-11-20T00:13:12;5.80;99.90
9987;DHT22;5033;46.310;11.214;2022-11-20T00:15:39;5.80;99.90
9987;DHT22;5033;46.310;11.214;2022-11-20T00:18:07;5.80;99.90
9987;DHT22;5033;46.310;11.214;2022-11-20T00:20:34;5.80;99.90
9987;DHT22;5033;46.310;11.214;2022-11-20T00:23:01;5.80;99.90
9987;DHT22;5033;46.310;11.214;2022-11-20T00:25:30;5.80;99.90
9987;DHT22;5033;46.310;11.214;2022-11-20T00:27:57;5.80;99.90
9987;DHT22;5033;46.310;11.214;2022-11-20T00:30:26;5.80;99.90
9987;DHT22;5033;46.310;11.214;2022-11-20T00:32:53;5.80;99.90
9987;DHT22;5033;46.310;11.214;2022-11-20T00:35:23;5.80;99.90
9987;DHT22;5033;46.310;11.214;2022-11-20T00:37:50;5.80;99.90
9987;DHT22;5033;46.310;11.214;2022-11-20T00:40:17;5.70;99.90
9987;DHT22;5033;46.310;11.214;2022-11-20T00:42:44;5.70;99.90
9987;DHT22;5033;46.310;11.214;2022-11-20T00:45:12;5.60;99.90
9987;DHT22;5033;46.310;11.214;2022-11-20T00:47:41;5.60;99.90
9987;DHT22;5033;46.310;11.214;2022-11-20T00:50:09;5.60;99.90
9987;DHT22;5033;46.310;11.214;2022-11-20T00:52:36;5.60;99.90
9987;DHT22;5033;46.310;11.214;2022-11-20T00:55:04;5.60;99.90
9987;DHT22;5033;46.310;11.214;2022-11-20T00:57:32;5.60;99.90
9987;DHT22;5033;46.310;11.214;2022-11-20T00:59:59;5.60;99.90
9987;DHT22;5033;46.310;11.214;2022-11-20T01:02:27;5.60;99.90
9987;DHT22;5033;46.310;11.214;2022-11-20T01:04:55;5.50;99.90
9987;DHT22;5033;46.310;11.214;2022-11-20T01:07:23;5.50;99.90
9987;DHT22;5033;46.310;11.214;2022-11-20T01:09:50;5.50;99.90
9987;DHT22;5033;46.310;11.214;2022-11-20T01:12:17;5.50;99.90
9987;DHT22;5033;46.310;11.214;2022-11-20T01:14:45;5.50;99.90
9987;DHT22;5033;46.310;11.214;2022-11-20T01:17:13;5.50;99.90
9987;DHT22;5033;46.310;11.214;2022-11-20T01:19:41;5.50;99.90
9987;DHT22;5033;46.310;11.214;2022-11-20T01:22:10;5.50;99.90
9987;DHT22;5033;46.310;11.214;2022-11-20T01:24:38;5.50;99.90
9987;DHT22;5033;46.310;11.214;2022-11-20T01:27:05;5.50;99.90
9987;DHT22;5033;46.310;11.214;2022-11-20T01:29:33;5.50;99.90
9987;DHT22;5033;46.310;11.214;2022-11-20T01:32:00;5.50;99.90
9987;DHT22;5033;46.310;11.214;2022-11-20T01:34:27;5.50;99.90
9987;DHT22;5033;46.310;11.214;2022-11-20T01:36:55;5.40;99.90
9987;DHT22;5033;46.310;11.214;2022-11-20T01:39:25;5.40;99.90
9987;DHT22;5033;46.310;11.214;2022-11-20T01:41:54;5.40;99.90
9987;DHT22;5033;46.310;11.214;2022-11-20T01:44:57;5.40;99.90
9987;DHT22;5033;46.310;11.214;2022-11-20T01:47:31;5.40;99.90
9987;DHT22;5033;46.310;11.214;2022-11-20T01:50:04;5.40;99.90
9987;DHT22;5033;46.310;11.214;2022-11-20T01:52:36;5.40;99.90
9987;DHT22;5033;46.310;11.214;2022-11-20T01:55:09;5.40;99.90
9987;DHT22;5033;46.310;11.214;2022-11-20T01:57:38;5.40;99.90
9987;DHT22;5033;46.310;11.214;2022-11-20T02:00:08;5.40;99.90
9987;DHT22;5033;46.310;11.214;2022-11-20T02:02:37;5.40;99.90
9987;DHT22;5033;46.310;11.214;2022-11-20T02:05:16;5.40;99.90
9987;DHT22;5033;46.310;11.214;2022-11-20T02:07:45;5.40;99.90
9987;DHT22;5033;46.310;11.214;2022-11-20T02:10:15;5.30;99.90
9987;DHT22;5033;46.310;11.214;2022-11-20T02:12:42;5.30;99.90
9987;DHT22;5033;46.310;11.214;2022-11-20T02:15:27;5.30;99.90
9987;DHT22;5033;46.310;11.214;2022-11-20T02:17:54;5.30;99.90
9987;DHT22;5033;46.310;11.214;2022-11-20T02:20:22;5.30;99.90
9987;DHT22;5033;46.310;11.214;2022-11-20T02:22:54;5.30;99.90
9987;DHT22;5033;46.310;11.214;2022-11-20T02:25:27;5.30;99.90
9987;DHT22;5033;46.310;11.214;2022-11-20T02:27:54;5.30;99.90
9987;DHT22;5033;46.310;11.214;2022-11-20T02:30:22;5.30;99.90
9987;DHT22;5033;46.310;11.214;2022-11-20T02:32:50;5.30;99.90
9987;DHT22;5033;46.310;11.214;2022-11-20T02:35:39;5.30;99.90
9987;DHT22;5033;46.310;11.214;2022-11-20T02:38:07;5.30;99.90
9987;DHT22;5033;46.310;11.214;2022-11-20T02:40:37;5.20;99.90
9987;DHT22;5033;46.310;11.214;2022-11-20T02:43:04;5.30;99.90
9987;DHT22;5033;46.310;11.214;2022-11-20T02:45:32;5.20;99.90
9987;DHT22;5033;46.310;11.214;2022-11-20T02:47:59;5.20;99.90
9987;DHT22;5033;46.310;11.214;2022-11-20T02:50:27;5.20;99.90
9987;DHT22;5033;46.310;11.214;2022-11-20T02:52:54;5.20;99.90
9987;DHT22;5033;46.310;11.214;2022-11-20T02:55:22;5.20;99.90
9987;DHT22;5033;46.310;11.214;2022-11-20T02:57:51;5.10;99.90
9987;DHT22;5033;46.310;11.214;2022-11-20T03:00:19;5.10;99.90
9987;DHT22;5033;46.310;11.214;2022-11-20T03:02:46;5.10;99.90
9987;DHT22;5033;46.310;11.214;2022-11-20T03:05:14;5.00;99.90
9987;DHT22;5033;46.310;11.214;2022-11-20T03:07:43;5.00;99.90
9987;DHT22;5033;46.310;11.214;2022-11-20T03:10:10;4.90;99.90
9987;DHT22;5033;46.310;11.214;2022-11-20T03:12:38;5.00;99.90
9987;DHT22;5033;46.310;11.214;2022-11-20T03:15:08;5.00;99.90
9987;DHT22;5033;46.310;11.214;2022-11-20T03:17:36;5.00;99.90
9987;DHT22;5033;46.310;11.214;2022-11-20T03:20:04;5.00;99.90
9987;DHT22;5033;46.310;11.214;2022-11-20T03:22:31;5.00;99.90
9987;DHT22;5033;46.310;11.214;2022-11-20T03:24:58;5.00;99.90
9987;DHT22;5033;46.310;11.214;2022-11-20T03:27:26;5.00;99.90
9987;DHT22;5033;46.310;11.214;2022-11-20T03:29:53;5.00;99.90
9987;DHT22;5033;46.310;11.214;2022-11-20T03:32:22;5.00;99.90
9987;DHT22;5033;46.310;11.214;2022-11-20T03:34:50;5.00;99.90
9987;DHT22;5033;46.310;11.214;2022-11-20T03:37:18;5.00;99.90
9987;DHT22;5033;46.310;11.214;2022-11-20T03:39:45;5.00;99.90
9987;DHT22;5033;46.310;11.214;2022-11-20T03:42:12;5.00;99.90
9987;DHT22;5033;46.310;11.214;2022-11-20T03:44:53;5.00;99.90
9987;DHT22;5033;46.310;11.214;2022-11-20T03:47:22;4.90;99.90
9987;DHT22;5033;46.310;11.214;2022-11-20T03:49:49;4.90;99.90
9987;DHT22;5033;46.310;11.214;2022-11-20T03:52:17;4.80;99.90
9987;DHT22;5033;46.310;11.214;2022-11-20T03:54:44;4.80;99.90
9987;DHT22;5033;46.310;11.214;2022-11-20T03:57:11;4.80;99.90
9987;DHT22;5033;46.310;11.214;2022-11-20T03:59:38;4.70;99.90
9987;DHT22;5033;46.310;11.214;2022-11-20T04:02:06;4.70;99.90
9987;DHT22;5033;46.310;11.214;2022-11-20T04:04:35;4.70;99.90
9987;DHT22;5033;46.310;11.214;2022-11-20T04:07:02;4.70;99.90
9987;DHT22;5033;46.310;11.214;2022-11-20T04:09:29;4.70;99.90
9987;DHT22;5033;46.310;11.214;2022-11-20T04:11:57;4.70;99.90
9987;DHT22;5033;46.310;11.214;2022-11-20T04:14:25;4.60;99.90
9987;DHT22;5033;46.310;11.214;2022-11-20T04:16:52;4.70;99.90
9987;DHT22;5033;46.310;11.214;2022-11-20T04:19:19;4.70;99.90
9987;DHT22;5033;46.310;11.214;2022-11-20T04:21:48;4.70;99.90
9987;DHT22;5033;46.310;11.214;2022-11-20T04:24:15;4.70;99.90
9987;DHT22;5033;46.310;11.214;2022-11-20T04:26:43;4.80;99.90
9987;DHT22;5033;46.310;11.214;2022-11-20T04:29:11;4.80;99.90
9987;DHT22;5033;46.310;11.214;2022-11-20T04:31:38;4.80;99.90
9987;DHT22;5033;46.310;11.214;2022-11-20T04:34:06;4.70;99.90
9987;DHT22;5033;46.310;11.214;2022-11-20T04:36:35;4.70;99.90
9987;DHT22;5033;46.310;11.214;2022-11-20T04:39:06;4.70;99.90
9987;DHT22;5033;46.310;11.214;2022-11-20T04:41:35;4.70;99.90
9987;DHT22;5033;46.310;11.214;2022-11-20T04:44:05;4.70;99.90
9987;DHT22;5033;46.310;11.214;2022-11-20T04:46:35;4.70;99.90
9987;DHT22;5033;46.310;11.214;2022-11-20T04:49:03;4.60;99.90
9987;DHT22;5033;46.310;11.214;2022-11-20T04:51:31;4.60;99.90
9987;DHT22;5033;46.310;11.214;2022-11-20T04:53:59;4.60;99.90
9987;DHT22;5033;46.310;11.214;2022-11-20T04:56:27;4.60;99.90
9987;DHT22;5033;46.310;11.214;2022-11-20T04:58:55;4.60;99.90
9987;DHT22;5033;46.310;11.214;2022-11-20T05:01:23;4.60;99.90
9987;DHT22;5033;46.310;11.214;2022-11-20T05:03:51;4.50;99.90
9987;DHT22;5033;46.310;11.214;2022-11-20T05:06:20;4.50;99.90
9987;DHT22;5033;46.310;11.214;2022-11-20T05:08:47;4.50;99.90
9987;DHT22;5033;46.310;11.214;2022-11-20T05:11:16;4.50;99.90
9987;DHT22;5033;46.310;11.214;2022-11-20T05:13:45;4.50;99.90
9987;DHT22;5033;46.310;11.214;2022-11-20T05:16:14;4.50;99.90
9987;DHT22;5033;46.310;11.214;2022-11-20T05:18:42;4.40;99.90
9987;DHT22;5033;46.310;11.214;2022-11-20T05:21:10;4.40;99.90
9987;DHT22;5033;46.310;11.214;2022-11-20T05:23:38;4.40;99.90
9987;DHT22;5033;46.310;11.214;2022-11-20T05:26:12;4.30;99.90
9987;DHT22;5033;46.310;11.214;2022-11-20T05:28:39;4.30;99.90
9987;DHT22;5033;46.310;11.214;2022-11-20T05:31:10;4.20;99.90
9987;DHT22;5033;46.310;11.214;2022-11-20T05:33:40;4.20;99.90
9987;DHT22;5033;46.310;11.214;2022-11-20T05:36:08;4.10;99.90
9987;DHT22;5033;46.310;11.214;2022-11-20T05:38:36;4.10;99.90
9987;DHT22;5033;46.310;11.214;2022-11-20T05:41:05;4.20;99.90
9987;DHT22;5033;46.310;11.214;2022-11-20T05:43:33;4.20;99.90
9987;DHT22;5033;46.310;11.214;2022-11-20T05:46:02;4.20;99.90
9987;DHT22;5033;46.310;11.214;2022-11-20T05:48:31;4.20;99.90
9987;DHT22;5033;46.310;11.214;2022-11-20T05:51:00;4.20;99.90
9987;DHT22;5033;46.310;11.214;2022-11-20T05:53:28;4.20;99.90
9987;DHT22;5033;46.310;11.214;2022-11-20T05:55:57;4.20;99.90
9987;DHT22;5033;46.310;11.214;2022-11-20T05:58:25;4.20;99.90
9987;DHT22;5033;46.310;11.214;2022-11-20T06:00:52;4.20;99.90
9987;DHT22;5033;46.310;11.214;2022-11-20T06:03:20;4.20;99.90
9987;DHT22;5033;46.310;11.214;2022-11-20T06:05:49;4.10;99.90
9987;DHT22;5033;46.310;11.214;2022-11-20T06:08:16;4.10;99.90
9987;DHT22;5033;46.310;11.214;2022-11-20T06:10:44;4.10;99.90
9987;DHT22;5033;46.310;11.214;2022-11-20T06:13:12;4.10;99.90
9987;DHT22;5033;46.310;11.214;2022-11-20T06:15:39;4.10;99.90
9987;DHT22;5033;46.310;11.214;2022-11-20T06:18:07;4.10;99.90
9987;DHT22;5033;46.310;11.214;2022-11-20T06:20:34;4.10;99.90
9987;DHT22;5033;46.310;11.214;2022-11-20T06:23:03;4.10;99.90
9987;DHT22;5033;46.310;11.214;2022-11-20T06:25:30;4.10;99.90
9987;DHT22;5033;46.310;11.214;2022-11-20T06:27:58;4.10;99.90
9987;DHT22;5033;46.310;11.214;2022-11-20T06:30:25;4.10;99.90
9987;DHT22;5033;46.310;11.214;2022-11-20T06:32:53;4.10;99.90
9987;DHT22;5033;46.310;11.214;2022-11-20T06:35:20;4.10;99.90
9987;DHT22;5033;46.310;11.214;2022-11-20T06:37:47;4.10;99.90
9987;DHT22;5033;46.310;11.214;2022-11-20T06:40:18;4.00;99.90
9987;DHT22;5033;46.310;11.214;2022-11-20T06:42:45;4.00;99.90
9987;DHT22;5033;46.310;11.214;2022-11-20T06:45:12;4.00;99.90
9987;DHT22;5033;46.310;11.214;2022-11-20T06:47:40;4.00;99.90
9987;DHT22;5033;46.310;11.214;2022-11-20T06:50:08;4.00;99.90
9987;DHT22;5033;46.310;11.214;2022-11-20T06:52:35;4.00;99.90
9987;DHT22;5033;46.310;11.214;2022-11-20T06:55:03;4.00;99.90
9987;DHT22;5033;46.310;11.214;2022-11-20T06:57:33;4.00;99.90
9987;DHT22;5033;46.310;11.214;2022-11-20T07:00:01;4.00;99.90
9987;DHT22;5033;46.310;11.214;2022-11-20T07:02:28;4.10;99.90
9987;DHT22;5033;46.310;11.214;2022-11-20T07:04:56;4.10;99.90
9987;DHT22;5033;46.310;11.214;2022-11-20T07:07:23;4.00;99.90
9987;DHT22;5033;46.310;11.214;2022-11-20T07:09:50;4.10;99.90
9987;DHT22;5033;46.310;11.214;2022-11-20T07:12:18;4.10;99.90
9987;DHT22;5033;46.310;11.214;2022-11-20T07:14:47;4.10;99.90
9987;DHT22;5033;46.310;11.214;2022-11-20T07:17:15;4.10;99.90
9987;DHT22;5033;46.310;11.214;2022-11-20T07:19:43;4.10;99.90
9987;DHT22;5033;46.310;11.214;2022-11-20T07:22:13;4.10;99.90
9987;DHT22;5033;46.310;11.214;2022-11-20T07:24:40;4.20;99.90
9987;DHT22;5033;46.310;11.214;2022-11-20T07:27:07;4.10;99.90
9987;DHT22;5033;46.310;11.214;2022-11-20T07:29:35;4.20;99.90
9987;DHT22;5033;46.310;11.214;2022-11-20T07:32:04;4.20;99.90
9987;DHT22;5033;46.310;11.214;2022-11-20T07:34:31;4.20;99.90
9987;DHT22;5033;46.310;11.214;2022-11-20T07:36:58;4.30;99.90
9987;DHT22;5033;46.310;11.214;2022-11-20T07:39:26;4.40;99.90
9987;DHT22;5033;46.310;11.214;2022-11-20T07:41:54;4.40;99.90
9987;DHT22;5033;46.310;11.214;2022-11-20T07:44:21;4.40;99.90
9987;DHT22;5033;46.310;11.214;2022-11-20T07:46:49;4.50;99.90
9987;DHT22;5033;46.310;11.214;2022-11-20T07:49:18;4.50;99.90
9987;DHT22;5033;46.310;11.214;2022-11-20T07:51:45;4.50;99.90
9987;DHT22;5033;46.310;11.214;2022-11-20T07:54:12;4.80;99.90
9987;DHT22;5033;46.310;11.214;2022-11-20T07:56:39;5.90;99.90
9987;DHT22;5033;46.310;11.214;2022-11-20T07:59:07;7.30;99.90
9987;DHT22;5033;46.310;11.214;2022-11-20T08:01:34;8.40;99.90
9987;DHT22;5033;46.310;11.214;2022-11-20T08:04:01;9.30;99.90
9987;DHT22;5033;46.310;11.214;2022-11-20T08:06:30;10.00;99.90
9987;DHT22;5033;46.310;11.214;2022-11-20T08:08:57;10.70;99.90
9987;DHT22;5033;46.310;11.214;2022-11-20T08:11:25;11.30;99.90
9987;DHT22;5033;46.310;11.214;2022-11-20T08:14:10;11.80;99.90
9987;DHT22;5033;46.310;11.214;2022-11-20T08:16:42;12.20;99.90
9987;DHT22;5033;46.310;11.214;2022-11-20T08:19:10;12.30;99.90
9987;DHT22;5033;46.310;11.214;2022-11-20T08:21:40;12.40;99.90
9987;DHT22;5033;46.310;11.214;2022-11-20T08:24:08;12.70;99.90
9987;DHT22;5033;46.310;11.214;2022-11-20T08:26:36;13.00;99.90
9987;DHT22;5033;46.310;11.214;2022-11-20T08:29:04;13.30;99.90
9987;DHT22;5033;46.310;11.214;2022-11-20T08:31:33;13.40;99.90
9987;DHT22;5033;46.310;11.214;2022-11-20T08:34:01;13.20;99.90
9987;DHT22;5033;46.310;11.214;2022-11-20T08:36:28;13.40;99.90
9987;DHT22;5033;46.310;11.214;2022-11-20T08:38:57;13.60;99.90
9987;DHT22;5033;46.310;11.214;2022-11-20T08:41:24;13.90;99.90
9987;DHT22;5033;46.310;11.214;2022-11-20T08:43:55;14.20;99.90
9987;DHT22;5033;46.310;11.214;2022-11-20T08:46:24;14.50;99.90
9987;DHT22;5033;46.310;11.214;2022-11-20T08:48:52;14.80;99.90
9987;DHT22;5033;46.310;11.214;2022-11-20T08:51:20;14.80;99.90
9987;DHT22;5033;46.310;11.214;2022-11-20T08:53:48;15.10;99.90
9987;DHT22;5033;46.310;11.214;2022-11-20T08:56:17;15.30;99.90
9987;DHT22;5033;46.310;11.214;2022-11-20T08:58:44;15.50;99.90
9987;DHT22;5033;46.310;11.214;2022-11-20T09:01:12;15.80;99.90
9987;DHT22;5033;46.310;11.214;2022-11-20T09:03:39;16.30;99.90
9987;DHT22;5033;46.310;11.214;2022-11-20T09:06:07;17.20;99.90
9987;DHT22;5033;46.310;11.214;2022-11-20T09:08:35;18.40;99.90
9987;DHT22;5033;46.310;11.214;2022-11-20T09:11:03;19.80;99.90
9987;DHT22;5033;46.310;11.214;2022-11-20T09:13:33;21.30;97.40
9987;DHT22;5033;46.310;11.214;2022-11-20T09:16:03;22.80;93.20
9987;DHT22;5033;46.310;11.214;2022-11-20T09:18:31;23.70;87.80
9987;DHT22;5033;46.310;11.214;2022-11-20T09:21:00;24.70;81.20
9987;DHT22;5033;46.310;11.214;2022-11-20T09:23:30;25.30;76.80
9987;DHT22;5033;46.310;11.214;2022-11-20T09:25:58;25.40;71.40
9987;DHT22;5033;46.310;11.214;2022-11-20T09:28:28;25.00;72.50
9987;DHT22;5033;46.310;11.214;2022-11-20T09:30:56;24.10;73.80
9987;DHT22;5033;46.310;11.214;2022-11-20T09:33:24;22.80;76.40
9987;DHT22;5033;46.310;11.214;2022-11-20T09:35:51;21.40;80.60
9987;DHT22;5033;46.310;11.214;2022-11-20T09:38:18;20.10;85.30
9987;DHT22;5033;46.310;11.214;2022-11-20T09:40:51;19.00;89.40
9987;DHT22;5033;46.310;11.214;2022-11-20T09:43:29;18.30;91.80
9987;DHT22;5033;46.310;11.214;2022-11-20T09:46:09;17.80;93.10
9987;DHT22;5033;46.310;11.214;2022-11-20T09:50:20;17.20;94.20
9987;DHT22;5033;46.310;11.214;2022-11-20T09:53:01;17.20;96.60
9987;DHT22;5033;46.310;11.214;2022-11-20T09:55:31;17.20;97.30
9987;DHT22;5033;46.310;11.214;2022-11-20T09:57:59;16.90;98.40
9987;DHT22;5033;46.310;11.214;2022-11-20T10:00:27;16.70;99.50
9987;DHT22;5033;46.310;11.214;2022-11-20T10:02:59;16.90;99.80
9987;DHT22;5033;46.310;11.214;2022-11-20T10:05:33;17.10;99.90
9987;DHT22;5033;46.310;11.214;2022-11-20T10:08:15;17.10;99.90
9987;DHT22;5033;46.310;11.214;2022-11-20T10:10:45;17.10;99.90
9987;DHT22;5033;46.310;11.214;2022-11-20T10:13:27;17.10;99.90
9987;DHT22;5033;46.310;11.214;2022-11-20T10:16:08;17.10;99.10
9987;DHT22;5033;46.310;11.214;2022-11-20T10:18:48;17.10;98.70
9987;DHT22;5033;46.310;11.214;2022-11-20T10:21:28;17.00;98.50
9987;DHT22;5033;46.310;11.214;2022-11-20T10:24:33;16.90;99.90
9987;DHT22;5033;46.310;11.214;2022-11-20T10:27:09;17.20;99.90
9987;DHT22;5033;46.310;11.214;2022-11-20T10:29:39;17.40;99.90
9987;DHT22;5033;46.310;11.214;2022-11-20T10:32:11;17.30;99.90
9987;DHT22;5033;46.310;11.214;2022-11-20T10:34:48;17.70;99.90
9987;DHT22;5033;46.310;11.214;2022-11-20T10:37:19;18.20;99.90
9987;DHT22;5033;46.310;11.214;2022-11-20T10:39:51;18.50;99.90
9987;DHT22;5033;46.310;11.214;2022-11-20T10:42:28;18.70;99.90
9987;DHT22;5033;46.310;11.214;2022-11-20T10:45:09;18.90;99.90
9987;DHT22;5033;46.310;11.214;2022-11-20T10:47:38;18.80;99.90
9987;DHT22;5033;46.310;11.214;2022-11-20T10:50:11;18.60;99.90
9987;DHT22;5033;46.310;11.214;2022-11-20T10:52:45;18.40;99.90
9987;DHT22;5033;46.310;11.214;2022-11-20T10:55:25;18.10;99.90
9987;DHT22;5033;46.310;11.214;2022-11-20T10:58:00;18.00;99.20
9987;DHT22;5033;46.310;11.214;2022-11-20T11:00:31;17.80;99.90
9987;DHT22;5033;46.310;11.214;2022-11-20T11:02:58;18.10;99.90
9987;DHT22;5033;46.310;11.214;2022-11-20T11:05:40;18.20;99.90
9987;DHT22;5033;46.310;11.214;2022-11-20T11:08:15;17.90;97.20
9987;DHT22;5033;46.310;11.214;2022-11-20T11:10:47;17.70;98.00
9987;DHT22;5033;46.310;11.214;2022-11-20T11:13:21;17.90;98.00
9987;DHT22;5033;46.310;11.214;2022-11-20T11:15:49;17.90;97.80
9987;DHT22;5033;46.310;11.214;2022-11-20T11:18:24;17.80;97.40
9987;DHT22;5033;46.310;11.214;2022-11-20T11:20:52;17.40;96.10
9987;DHT22;5033;46.310;11.214;2022-11-20T11:23:39;17.20;96.60
9987;DHT22;5033;46.310;11.214;2022-11-20T11:26:18;17.10;97.00
9987;DHT22;5033;46.310;11.214;2022-11-20T11:28:53;17.00;96.40
9987;DHT22;5033;46.310;11.214;2022-11-20T11:31:23;16.90;97.30
9987;DHT22;5033;46.310;11.214;2022-11-20T11:33:50;16.80;97.10
9987;DHT22;5033;46.310;11.214;2022-11-20T11:36:19;16.50;97.30
9987;DHT22;5033;46.310;11.214;2022-11-20T11:38:52;16.60;97.40
9987;DHT22;5033;46.310;11.214;2022-11-20T11:41:22;16.70;97.30
9987;DHT22;5033;46.310;11.214;2022-11-20T11:43:52;16.60;97.00
9987;DHT22;5033;46.310;11.214;2022-11-20T11:46:37;16.80;97.70
9987;DHT22;5033;46.310;11.214;2022-11-20T11:49:17;16.90;97.60
9987;DHT22;5033;46.310;11.214;2022-11-20T11:52:01;16.90;96.80
9987;DHT22;5033;46.310;11.214;2022-11-20T11:54:34;16.80;96.80
9987;DHT22;5033;46.310;11.214;2022-11-20T11:57:10;16.90;97.10
9987;DHT22;5033;46.310;11.214;2022-11-20T11:59:49;16.80;97.00
9987;DHT22;5033;46.310;11.214;2022-11-20T12:02:29;16.80;97.40
9987;DHT22;5033;46.310;11.214;2022-11-20T12:05:00;16.90;97.10
9987;DHT22;5033;46.310;11.214;2022-11-20T12:07:38;16.90;97.40
9987;DHT22;5033;46.310;11.214;2022-11-20T12:10:15;16.70;97.30
9987;DHT22;5033;46.310;11.214;2022-11-20T12:12:46;16.80;97.60
9987;DHT22;5033;46.310;11.214;2022-11-20T12:15:28;16.70;97.90
9987;DHT22;5033;46.310;11.214;2022-11-20T12:17:56;16.60;97.80
9987;DHT22;5033;46.310;11.214;2022-11-20T12:20:28;16.50;98.10
9987;DHT22;5033;46.310;11.214;2022-11-20T12:23:02;16.60;98.10
9987;DHT22;5033;46.310;11.214;2022-11-20T12:25:35;16.50;98.60
9987;DHT22;5033;46.310;11.214;2022-11-20T12:28:18;16.50;97.60
9987;DHT22;5033;46.310;11.214;2022-11-20T12:31:01;16.50;98.00
9987;DHT22;5033;46.310;11.214;2022-11-20T12:36:27;16.60;97.30
9987;DHT22;5033;46.310;11.214;2022-11-20T12:42:09;16.70;98.00
9987;DHT22;5033;46.310;11.214;2022-11-20T12:45:10;16.70;98.00
9987;DHT22;5033;46.310;11.214;2022-11-20T12:48:03;16.70;97.60
9987;DHT22;5033;46.310;11.214;2022-11-20T12:50:43;16.60;97.40
9987;DHT22;5033;46.310;11.214;2022-11-20T12:53:22;16.50;96.90
9987;DHT22;5033;46.310;11.214;2022-11-20T12:55:58;16.20;97.30
9987;DHT22;5033;46.310;11.214;2022-11-20T12:58:37;16.20;98.00
9987;DHT22;5033;46.310;11.214;2022-11-20T13:01:14;16.20;97.80
9987;DHT22;5033;46.310;11.214;2022-11-20T13:04:13;16.00;97.70
9987;DHT22;5033;46.310;11.214;2022-11-20T13:06:40;16.00;98.10
9987;DHT22;5033;46.310;11.214;2022-11-20T13:09:11;16.00;98.20
9987;DHT22;5033;46.310;11.214;2022-11-20T13:11:43;16.10;97.60
9987;DHT22;5033;46.310;11.214;2022-11-20T13:14:26;16.10;97.60
9987;DHT22;5033;46.310;11.214;2022-11-20T13:16:58;16.20;96.50
9987;DHT22;5033;46.310;11.214;2022-11-20T13:19:26;16.10;97.30
9987;DHT22;5033;46.310;11.214;2022-11-20T13:21:54;16.20;97.70
9987;DHT22;5033;46.310;11.214;2022-11-20T13:24:24;16.20;97.80
9987;DHT22;5033;46.310;11.214;2022-11-20T13:27:17;16.10;97.90
9987;DHT22;5033;46.310;11.214;2022-11-20T13:29:59;16.20;97.20
9987;DHT22;5033;46.310;11.214;2022-11-20T13:32:28;16.20;97.50
9987;DHT22;5033;46.310;11.214;2022-11-20T13:34:59;16.10;97.70
9987;DHT22;5033;46.310;11.214;2022-11-20T13:37:28;15.90;97.90
9987;DHT22;5033;46.310;11.214;2022-11-20T13:40:11;15.90;97.80
9987;DHT22;5033;46.310;11.214;2022-11-20T13:42:40;15.80;97.80
9987;DHT22;5033;46.310;11.214;2022-11-20T13:45:22;15.80;98.40
9987;DHT22;5033;46.310;11.214;2022-11-20T13:47:50;15.80;97.20
9987;DHT22;5033;46.310;11.214;2022-11-20T13:50:18;15.70;97.90
9987;DHT22;5033;46.310;11.214;2022-11-20T13:52:51;15.40;98.10
9987;DHT22;5033;46.310;11.214;2022-11-20T13:55:27;15.00;98.40
9987;DHT22;5033;46.310;11.214;2022-11-20T13:58:22;14.60;99.00
9987;DHT22;5033;46.310;11.214;2022-11-20T14:01:00;14.10;99.90
9987;DHT22;5033;46.310;11.214;2022-11-20T14:03:30;13.80;99.90
9987;DHT22;5033;46.310;11.214;2022-11-20T14:06:03;13.60;99.90
9987;DHT22;5033;46.310;11.214;2022-11-20T14:08:36;13.40;99.90
9987;DHT22;5033;46.310;11.214;2022-11-20T14:11:06;13.20;99.90
9987;DHT22;5033;46.310;11.214;2022-11-20T14:13:50;13.00;99.90
9987;DHT22;5033;46.310;11.214;2022-11-20T14:16:21;12.80;99.90
9987;DHT22;5033;46.310;11.214;2022-11-20T14:18:48;12.60;99.90
9987;DHT22;5033;46.310;11.214;2022-11-20T14:21:22;12.50;99.90
9987;DHT22;5033;46.310;11.214;2022-11-20T14:23:53;12.40;99.90
9987;DHT22;5033;46.310;11.214;2022-11-20T14:26:20;12.40;99.90
9987;DHT22;5033;46.310;11.214;2022-11-20T14:28:49;12.30;99.90
9987;DHT22;5033;46.310;11.214;2022-11-20T14:31:23;12.20;99.90
9987;DHT22;5033;46.310;11.214;2022-11-20T14:33:52;12.10;99.90
9987;DHT22;5033;46.310;11.214;2022-11-20T14:36:22;12.10;99.90
9987;DHT22;5033;46.310;11.214;2022-11-20T14:38:50;12.00;99.90
9987;DHT22;5033;46.310;11.214;2022-11-20T14:41:19;11.90;99.90
9987;DHT22;5033;46.310;11.214;2022-11-20T14:43:48;11.80;99.90
9987;DHT22;5033;46.310;11.214;2022-11-20T14:46:17;11.60;99.90
9987;DHT22;5033;46.310;11.214;2022-11-20T14:48:49;11.60;99.90
9987;DHT22;5033;46.310;11.214;2022-11-20T14:51:29;11.50;99.90
9987;DHT22;5033;46.310;11.214;2022-11-20T14:54:07;11.50;99.90
9987;DHT22;5033;46.310;11.214;2022-11-20T14:56:34;11.40;99.90
9987;DHT22;5033;46.310;11.214;2022-11-20T14:59:01;11.40;99.90
9987;DHT22;5033;46.310;11.214;2022-11-20T15:01:30;11.40;99.90
9987;DHT22;5033;46.310;11.214;2022-11-20T15:04:02;11.30;99.90
9987;DHT22;5033;46.310;11.214;2022-11-20T15:06:31;11.30;99.90
9987;DHT22;5033;46.310;11.214;2022-11-20T15:08:58;11.10;99.90
9987;DHT22;5033;46.310;11.214;2022-11-20T15:11:29;11.10;99.90
9987;DHT22;5033;46.310;11.214;2022-11-20T15:13:58;11.00;99.90
9987;DHT22;5033;46.310;11.214;2022-11-20T15:16:29;10.90;99.90
9987;DHT22;5033;46.310;11.214;2022-11-20T15:18:57;10.80;99.90
9987;DHT22;5033;46.310;11.214;2022-11-20T15:21:25;10.80;99.90
9987;DHT22;5033;46.310;11.214;2022-11-20T15:23:52;10.70;99.90
9987;DHT22;5033;46.310;11.214;2022-11-20T15:26:23;10.60;99.90
9987;DHT22;5033;46.310;11.214;2022-11-20T15:28:51;10.60;99.90
9987;DHT22;5033;46.310;11.214;2022-11-20T15:31:21;10.50;99.90
9987;DHT22;5033;46.310;11.214;2022-11-20T15:33:49;10.40;99.90
9987;DHT22;5033;46.310;11.214;2022-11-20T15:36:17;10.30;99.90
9987;DHT22;5033;46.310;11.214;2022-11-20T15:38:45;10.30;99.90
9987;DHT22;5033;46.310;11.214;2022-11-20T15:41:13;10.20;99.90
9987;DHT22;5033;46.310;11.214;2022-11-20T15:43:40;10.10;99.90
9987;DHT22;5033;46.310;11.214;2022-11-20T15:46:09;10.00;99.90
9987;DHT22;5033;46.310;11.214;2022-11-20T15:48:40;10.00;99.90
9987;DHT22;5033;46.310;11.214;2022-11-20T15:51:18;9.90;99.90
9987;DHT22;5033;46.310;11.214;2022-11-20T15:53:49;9.80;99.90
9987;DHT22;5033;46.310;11.214;2022-11-20T15:56:16;9.70;99.90
9987;DHT22;5033;46.310;11.214;2022-11-20T15:58:43;9.60;99.90
9987;DHT22;5033;46.310;11.214;2022-11-20T16:01:12;9.50;99.90
9987;DHT22;5033;46.310;11.214;2022-11-20T16:03:40;9.50;99.90
9987;DHT22;5033;46.310;11.214;2022-11-20T16:06:07;9.40;99.90
9987;DHT22;5033;46.310;11.214;2022-11-20T16:08:34;9.30;99.90
9987;DHT22;5033;46.310;11.214;2022-11-20T16:11:03;9.30;99.90
9987;DHT22;5033;46.310;11.214;2022-11-20T16:13:31;9.20;99.90
9987;DHT22;5033;46.310;11.214;2022-11-20T16:16:20;9.20;99.90
9987;DHT22;5033;46.310;11.214;2022-11-20T16:18:47;9.20;99.90
9987;DHT22;5033;46.310;11.214;2022-11-20T16:21:15;9.20;99.90
9987;DHT22;5033;46.310;11.214;2022-11-20T16:23:42;9.20;99.90